Andrews Air Force Base, Maryland
Current Conditions -  °F | °C
As of 4:58 PM on Wednesday 28 Jan 2015 (Local Time) from KADW Reporting Station
Clear Clear  
Wind Chill: 23°   Ceiling: Unl
Heat Index: 33°   Visibility: 10mi
Dew Point:   Wind: 15mph
Humidity: 32%   Direction: 320°NW
Pressure: 30.24"   Gusts: NA
Location:  38.8062°N, 76.8756°W
Report Text: KADW 282158Z 32013KT 10SM CLR 01/M14 A3024 RMK AO2A SLP251 T00061143 $
Loading
Personal Weather Stations






























Interactive Weather Map New forecast layout! Learn more

10-Day Weather Forecast

Advertisements
Track Severe Weather on mobile